sensor_id;sensor_type;location;lat;lon;timestamp;pressure;altitude;pressure_sealevel;temperature;humidity
55517;BME280;41724;51.176;-0.708;2023-03-19T00:02:05;100560.77;;;10.40;71.90
55517;BME280;41724;51.176;-0.708;2023-03-19T00:04:32;100560.93;;;11.27;69.23
55517;BME280;41724;51.176;-0.708;2023-03-19T00:06:59;100566.80;;;10.84;68.71
55517;BME280;41724;51.176;-0.708;2023-03-19T00:09:27;100560.67;;;11.26;68.87
55517;BME280;41724;51.176;-0.708;2023-03-19T00:11:54;100563.27;;;11.68;67.24
55517;BME280;41724;51.176;-0.708;2023-03-19T00:14:21;100570.41;;;11.27;68.58
55517;BME280;41724;51.176;-0.708;2023-03-19T00:16:48;100579.62;;;11.98;66.86
55517;BME280;41724;51.176;-0.708;2023-03-19T00:19:16;100577.97;;;11.77;66.06
55517;BME280;41724;51.176;-0.708;2023-03-19T00:21:43;100570.79;;;11.97;65.61
55517;BME280;41724;51.176;-0.708;2023-03-19T00:24:10;100566.76;;;12.23;65.06
55517;BME280;41724;51.176;-0.708;2023-03-19T00:26:37;100570.06;;;12.02;65.26
55517;BME280;41724;51.176;-0.708;2023-03-19T00:29:05;100578.20;;;11.48;68.11
55517;BME280;41724;51.176;-0.708;2023-03-19T00:31:32;100586.69;;;11.33;70.12
55517;BME280;41724;51.176;-0.708;2023-03-19T00:33:59;100592.84;;;11.54;68.70
55517;BME280;41724;51.176;-0.708;2023-03-19T00:36:27;100594.74;;;12.15;67.25
55517;BME280;41724;51.176;-0.708;2023-03-19T00:38:54;100593.64;;;11.97;69.03
55517;BME280;41724;51.176;-0.708;2023-03-19T00:41:21;100593.21;;;11.63;68.70
55517;BME280;41724;51.176;-0.708;2023-03-19T00:43:55;100593.39;;;11.74;69.85
55517;BME280;41724;51.176;-0.708;2023-03-19T00:46:23;100597.94;;;11.80;68.64
55517;BME280;41724;51.176;-0.708;2023-03-19T00:48:50;100591.18;;;11.72;70.48
55517;BME280;41724;51.176;-0.708;2023-03-19T00:51:17;100589.41;;;11.40;72.09
55517;BME280;41724;51.176;-0.708;2023-03-19T00:53:45;100598.60;;;11.80;72.34
55517;BME280;41724;51.176;-0.708;2023-03-19T00:56:13;100599.62;;;11.82;71.36
55517;BME280;41724;51.176;-0.708;2023-03-19T00:58:40;100593.56;;;12.09;71.01
55517;BME280;41724;51.176;-0.708;2023-03-19T01:01:07;100586.42;;;12.30;70.30
55517;BME280;41724;51.176;-0.708;2023-03-19T01:03:35;100593.77;;;12.31;70.30
55517;BME280;41724;51.176;-0.708;2023-03-19T01:06:02;100601.58;;;12.71;68.92
55517;BME280;41724;51.176;-0.708;2023-03-19T01:08:30;100615.52;;;12.23;71.39
55517;BME280;41724;51.176;-0.708;2023-03-19T01:11:05;100636.71;;;12.26;70.77
55517;BME280;41724;51.176;-0.708;2023-03-19T01:13:32;100634.35;;;11.22;70.61
55517;BME280;41724;51.176;-0.708;2023-03-19T01:15:59;100637.74;;;10.91;71.49
55517;BME280;41724;51.176;-0.708;2023-03-19T01:18:26;100648.76;;;10.14;72.20
55517;BME280;41724;51.176;-0.708;2023-03-19T01:20:53;100657.04;;;10.00;73.47
55517;BME280;41724;51.176;-0.708;2023-03-19T01:23:20;100663.19;;;10.10;74.23
55517;BME280;41724;51.176;-0.708;2023-03-19T01:25:47;100668.53;;;10.14;73.57
55517;BME280;41724;51.176;-0.708;2023-03-19T01:28:15;100681.98;;;10.26;71.92
55517;BME280;41724;51.176;-0.708;2023-03-19T01:30:42;100683.34;;;9.24;75.40
55517;BME280;41724;51.176;-0.708;2023-03-19T01:33:09;100696.64;;;9.04;78.09
55517;BME280;41724;51.176;-0.708;2023-03-19T01:35:36;100696.26;;;9.12;75.86
55517;BME280;41724;51.176;-0.708;2023-03-19T01:38:03;100700.56;;;9.72;74.03
55517;BME280;41724;51.176;-0.708;2023-03-19T01:40:30;100700.45;;;9.60;73.13
55517;BME280;41724;51.176;-0.708;2023-03-19T01:43:14;100700.62;;;9.52;73.06
55517;BME280;41724;51.176;-0.708;2023-03-19T01:45:43;100708.35;;;9.87;73.56
55517;BME280;41724;51.176;-0.708;2023-03-19T01:48:19;100712.82;;;9.67;74.48
55517;BME280;41724;51.176;-0.708;2023-03-19T01:50:52;100718.58;;;10.10;71.51
55517;BME280;41724;51.176;-0.708;2023-03-19T01:53:22;100720.08;;;8.81;74.40
55517;BME280;41724;51.176;-0.708;2023-03-19T01:55:51;100729.90;;;9.89;72.63
55517;BME280;41724;51.176;-0.708;2023-03-19T01:58:18;100731.02;;;9.93;71.55
55517;BME280;41724;51.176;-0.708;2023-03-19T02:00:46;100728.10;;;10.44;70.00
55517;BME280;41724;51.176;-0.708;2023-03-19T02:03:13;100717.81;;;10.00;70.47
55517;BME280;41724;51.176;-0.708;2023-03-19T02:05:42;100720.47;;;10.37;68.17
55517;BME280;41724;51.176;-0.708;2023-03-19T02:08:13;100726.23;;;10.51;68.48
55517;BME280;41724;51.176;-0.708;2023-03-19T02:10:42;100724.46;;;10.31;68.96
55517;BME280;41724;51.176;-0.708;2023-03-19T02:13:10;100729.83;;;10.71;68.03
55517;BME280;41724;51.176;-0.708;2023-03-19T02:15:38;100736.64;;;10.93;66.97
55517;BME280;41724;51.176;-0.708;2023-03-19T02:18:06;100735.99;;;11.37;65.83
55517;BME280;41724;51.176;-0.708;2023-03-19T02:20:40;100733.28;;;11.29;65.29
55517;BME280;41724;51.176;-0.708;2023-03-19T02:23:19;100727.90;;;11.35;65.33
55517;BME280;41724;51.176;-0.708;2023-03-19T02:26:02;100724.26;;;11.54;64.52
55517;BME280;41724;51.176;-0.708;2023-03-19T02:28:31;100721.01;;;11.62;63.30
55517;BME280;41724;51.176;-0.708;2023-03-19T02:30:59;100720.20;;;11.37;63.00
55517;BME280;41724;51.176;-0.708;2023-03-19T02:33:26;100719.96;;;11.59;62.78
55517;BME280;41724;51.176;-0.708;2023-03-19T02:35:54;100716.86;;;11.70;62.93
55517;BME280;41724;51.176;-0.708;2023-03-19T02:38:24;100718.46;;;11.91;62.59
55517;BME280;41724;51.176;-0.708;2023-03-19T02:40:57;100714.30;;;11.78;61.64
55517;BME280;41724;51.176;-0.708;2023-03-19T02:43:25;100708.08;;;12.12;62.16
55517;BME280;41724;51.176;-0.708;2023-03-19T02:45:53;100700.87;;;12.07;61.94
55517;BME280;41724;51.176;-0.708;2023-03-19T02:48:21;100695.19;;;12.08;61.77
55517;BME280;41724;51.176;-0.708;2023-03-19T02:50:47;100707.49;;;12.01;62.11
55517;BME280;41724;51.176;-0.708;2023-03-19T02:53:15;100712.10;;;11.85;63.05
55517;BME280;41724;51.176;-0.708;2023-03-19T02:55:42;100719.61;;;11.54;63.21
55517;BME280;41724;51.176;-0.708;2023-03-19T02:58:09;100729.22;;;11.73;62.58
55517;BME280;41724;51.176;-0.708;2023-03-19T03:00:36;100726.31;;;11.81;62.46
55517;BME280;41724;51.176;-0.708;2023-03-19T03:03:05;100730.21;;;11.96;62.78
55517;BME280;41724;51.176;-0.708;2023-03-19T03:05:33;100730.33;;;11.77;62.53
55517;BME280;41724;51.176;-0.708;2023-03-19T03:08:01;100733.56;;;12.10;62.06
55517;BME280;41724;51.176;-0.708;2023-03-19T03:10:28;100730.63;;;11.85;62.12
55517;BME280;41724;51.176;-0.708;2023-03-19T03:12:55;100728.24;;;12.14;61.64
55517;BME280;41724;51.176;-0.708;2023-03-19T03:15:22;100729.32;;;11.93;61.61
55517;BME280;41724;51.176;-0.708;2023-03-19T03:17:50;100728.40;;;11.89;62.85
55517;BME280;41724;51.176;-0.708;2023-03-19T03:20:17;100741.20;;;11.74;62.76
55517;BME280;41724;51.176;-0.708;2023-03-19T03:22:45;100743.42;;;11.31;62.81
55517;BME280;41724;51.176;-0.708;2023-03-19T03:25:13;100746.28;;;10.85;62.84
55517;BME280;41724;51.176;-0.708;2023-03-19T03:27:40;100745.81;;;10.94;64.30
55517;BME280;41724;51.176;-0.708;2023-03-19T03:30:09;100745.17;;;11.05;63.32
55517;BME280;41724;51.176;-0.708;2023-03-19T03:32:38;100748.46;;;11.14;63.25
55517;BME280;41724;51.176;-0.708;2023-03-19T03:35:06;100754.07;;;11.21;63.45
55517;BME280;41724;51.176;-0.708;2023-03-19T03:37:34;100761.00;;;11.81;62.56
55517;BME280;41724;51.176;-0.708;2023-03-19T03:40:02;100766.69;;;11.22;62.80
55517;BME280;41724;51.176;-0.708;2023-03-19T03:42:29;100774.25;;;11.08;62.03
55517;BME280;41724;51.176;-0.708;2023-03-19T03:44:56;100776.82;;;10.63;62.73
55517;BME280;41724;51.176;-0.708;2023-03-19T03:47:24;100781.04;;;10.26;65.91
55517;BME280;41724;51.176;-0.708;2023-03-19T03:49:51;100782.04;;;10.80;65.02
55517;BME280;41724;51.176;-0.708;2023-03-19T03:52:18;100781.16;;;11.05;63.74
55517;BME280;41724;51.176;-0.708;2023-03-19T03:54:45;100784.44;;;10.63;64.14
55517;BME280;41724;51.176;-0.708;2023-03-19T03:57:12;100788.98;;;11.06;64.07
55517;BME280;41724;51.176;-0.708;2023-03-19T03:59:39;100789.71;;;11.10;62.60
55517;BME280;41724;51.176;-0.708;2023-03-19T04:02:06;100791.62;;;11.18;63.03
55517;BME280;41724;51.176;-0.708;2023-03-19T04:04:33;100799.56;;;11.38;61.21
55517;BME280;41724;51.176;-0.708;2023-03-19T04:07:00;100800.95;;;10.96;61.94
55517;BME280;41724;51.176;-0.708;2023-03-19T04:09:27;100805.48;;;11.24;62.83
55517;BME280;41724;51.176;-0.708;2023-03-19T04:11:54;100809.48;;;10.98;62.35
55517;BME280;41724;51.176;-0.708;2023-03-19T04:14:22;100813.76;;;10.99;63.03
55517;BME280;41724;51.176;-0.708;2023-03-19T04:16:50;100818.51;;;11.17;64.04
55517;BME280;41724;51.176;-0.708;2023-03-19T04:19:18;100815.54;;;10.74;62.87
55517;BME280;41724;51.176;-0.708;2023-03-19T04:21:45;100816.80;;;11.03;62.34
55517;BME280;41724;51.176;-0.708;2023-03-19T04:24:12;100817.11;;;11.18;62.90
55517;BME280;41724;51.176;-0.708;2023-03-19T04:26:40;100823.62;;;10.97;61.94
55517;BME280;41724;51.176;-0.708;2023-03-19T04:29:07;100824.02;;;10.62;63.32
55517;BME280;41724;51.176;-0.708;2023-03-19T04:31:34;100828.32;;;10.31;62.74
55517;BME280;41724;51.176;-0.708;2023-03-19T04:34:01;100835.83;;;10.40;62.84
55517;BME280;41724;51.176;-0.708;2023-03-19T04:36:28;100834.66;;;10.00;63.62
55517;BME280;41724;51.176;-0.708;2023-03-19T04:38:55;100838.94;;;9.37;65.65
55517;BME280;41724;51.176;-0.708;2023-03-19T04:41:23;100843.21;;;9.03;63.40
55517;BME280;41724;51.176;-0.708;2023-03-19T04:43:50;100847.77;;;8.96;64.61
55517;BME280;41724;51.176;-0.708;2023-03-19T04:46:17;100851.26;;;9.00;65.67
55517;BME280;41724;51.176;-0.708;2023-03-19T04:48:44;100858.78;;;8.34;67.21
55517;BME280;41724;51.176;-0.708;2023-03-19T04:51:11;100862.80;;;8.68;65.49
55517;BME280;41724;51.176;-0.708;2023-03-19T04:53:38;100864.88;;;8.62;65.45
55517;BME280;41724;51.176;-0.708;2023-03-19T04:56:06;100869.74;;;8.51;65.93
55517;BME280;41724;51.176;-0.708;2023-03-19T04:58:34;100876.47;;;7.98;66.93
55517;BME280;41724;51.176;-0.708;2023-03-19T05:01:01;100872.50;;;8.10;67.76
55517;BME280;41724;51.176;-0.708;2023-03-19T05:03:28;100869.86;;;8.47;65.98
55517;BME280;41724;51.176;-0.708;2023-03-19T05:05:55;100867.89;;;8.44;65.69
55517;BME280;41724;51.176;-0.708;2023-03-19T05:08:22;100867.93;;;8.70;65.05
55517;BME280;41724;51.176;-0.708;2023-03-19T05:10:49;100876.85;;;8.03;65.40
55517;BME280;41724;51.176;-0.708;2023-03-19T05:13:16;100882.24;;;8.39;66.42
55517;BME280;41724;51.176;-0.708;2023-03-19T05:15:46;100884.62;;;7.58;68.14
55517;BME280;41724;51.176;-0.708;2023-03-19T05:18:13;100889.06;;;8.54;66.43
55517;BME280;41724;51.176;-0.708;2023-03-19T05:20:41;100889.80;;;8.62;65.78
55517;BME280;41724;51.176;-0.708;2023-03-19T05:23:09;100891.85;;;9.23;64.39
55517;BME280;41724;51.176;-0.708;2023-03-19T05:25:36;100899.00;;;9.00;62.87
55517;BME280;41724;51.176;-0.708;2023-03-19T05:28:04;100900.06;;;9.24;63.49
55517;BME280;41724;51.176;-0.708;2023-03-19T05:30:31;100906.24;;;9.10;63.38
55517;BME280;41724;51.176;-0.708;2023-03-19T05:32:59;100911.63;;;9.18;62.62
55517;BME280;41724;51.176;-0.708;2023-03-19T05:35:27;100911.96;;;9.01;63.13
55517;BME280;41724;51.176;-0.708;2023-03-19T05:37:55;100915.03;;;9.56;62.40
55517;BME280;41724;51.176;-0.708;2023-03-19T05:40:22;100919.38;;;9.19;61.76
55517;BME280;41724;51.176;-0.708;2023-03-19T05:42:49;100919.90;;;9.27;62.36
55517;BME280;41724;51.176;-0.708;2023-03-19T05:45:17;100922.96;;;9.28;62.16
55517;BME280;41724;51.176;-0.708;2023-03-19T05:47:46;100927.66;;;9.32;61.74
55517;BME280;41724;51.176;-0.708;2023-03-19T05:50:13;100931.06;;;9.06;62.87
55517;BME280;41724;51.176;-0.708;2023-03-19T05:52:40;100935.83;;;9.35;62.66
55517;BME280;41724;51.176;-0.708;2023-03-19T05:55:08;100941.73;;;8.81;61.97
55517;BME280;41724;51.176;-0.708;2023-03-19T05:57:35;100945.74;;;8.30;64.17
55517;BME280;41724;51.176;-0.708;2023-03-19T06:00:04;100953.72;;;8.28;65.71
55517;BME280;41724;51.176;-0.708;2023-03-19T06:02:32;100957.67;;;8.00;66.05
55517;BME280;41724;51.176;-0.708;2023-03-19T06:04:59;100960.42;;;7.87;66.47
55517;BME280;41724;51.176;-0.708;2023-03-19T06:07:26;100963.68;;;8.70;64.95
55517;BME280;41724;51.176;-0.708;2023-03-19T06:09:53;100969.29;;;9.01;64.31
55517;BME280;41724;51.176;-0.708;2023-03-19T06:12:20;100972.22;;;8.77;64.22
55517;BME280;41724;51.176;-0.708;2023-03-19T06:14:48;100974.30;;;8.84;63.24
55517;BME280;41724;51.176;-0.708;2023-03-19T06:17:15;100977.97;;;8.40;63.76
55517;BME280;41724;51.176;-0.708;2023-03-19T06:19:42;100981.05;;;8.96;63.51
55517;BME280;41724;51.176;-0.708;2023-03-19T06:22:09;100989.59;;;8.72;64.24
55517;BME280;41724;51.176;-0.708;2023-03-19T06:24:36;100992.42;;;8.99;63.49
55517;BME280;41724;51.176;-0.708;2023-03-19T06:27:03;100997.39;;;8.85;63.32
55517;BME280;41724;51.176;-0.708;2023-03-19T06:29:30;101002.49;;;8.38;63.44
55517;BME280;41724;51.176;-0.708;2023-03-19T06:31:58;101007.00;;;8.96;63.38
55517;BME280;41724;51.176;-0.708;2023-03-19T06:34:25;101005.07;;;9.02;62.89
55517;BME280;41724;51.176;-0.708;2023-03-19T06:36:52;101007.99;;;9.19;62.95
55517;BME280;41724;51.176;-0.708;2023-03-19T06:39:19;101008.64;;;9.44;61.58
55517;BME280;41724;51.176;-0.708;2023-03-19T06:41:48;101010.35;;;9.00;62.90
55517;BME280;41724;51.176;-0.708;2023-03-19T06:44:15;101014.24;;;8.24;63.59
55517;BME280;41724;51.176;-0.708;2023-03-19T06:46:43;101016.48;;;8.69;63.69
55517;BME280;41724;51.176;-0.708;2023-03-19T06:49:11;101019.85;;;8.59;62.99
55517;BME280;41724;51.176;-0.708;2023-03-19T06:51:38;101023.24;;;9.11;63.34
55517;BME280;41724;51.176;-0.708;2023-03-19T06:54:05;101025.29;;;8.93;62.34
55517;BME280;41724;51.176;-0.708;2023-03-19T06:56:32;101027.25;;;8.71;62.18
55517;BME280;41724;51.176;-0.708;2023-03-19T06:58:59;101028.83;;;8.91;62.23
55517;BME280;41724;51.176;-0.708;2023-03-19T07:01:26;101034.73;;;8.97;63.15
55517;BME280;41724;51.176;-0.708;2023-03-19T07:03:54;101036.82;;;8.55;63.37
55517;BME280;41724;51.176;-0.708;2023-03-19T07:06:21;101034.65;;;8.83;63.17
55517;BME280;41724;51.176;-0.708;2023-03-19T07:08:48;101037.58;;;8.54;64.13
55517;BME280;41724;51.176;-0.708;2023-03-19T07:11:15;101044.97;;;8.77;63.05
55517;BME280;41724;51.176;-0.708;2023-03-19T07:13:42;101048.78;;;8.37;64.57
55517;BME280;41724;51.176;-0.708;2023-03-19T07:16:10;101057.93;;;8.60;64.47
55517;BME280;41724;51.176;-0.708;2023-03-19T07:18:37;101062.92;;;8.96;64.06
55517;BME280;41724;51.176;-0.708;2023-03-19T07:21:04;101068.99;;;8.46;63.28
55517;BME280;41724;51.176;-0.708;2023-03-19T07:23:32;101070.10;;;8.74;64.29
55517;BME280;41724;51.176;-0.708;2023-03-19T07:25:59;101073.82;;;7.70;64.60
55517;BME280;41724;51.176;-0.708;2023-03-19T07:28:26;101073.14;;;8.30;64.20
55517;BME280;41724;51.176;-0.708;2023-03-19T07:30:54;101072.02;;;8.18;65.46
55517;BME280;41724;51.176;-0.708;2023-03-19T07:33:21;101077.40;;;8.72;64.64
55517;BME280;41724;51.176;-0.708;2023-03-19T07:35:49;101075.34;;;8.81;62.97
55517;BME280;41724;51.176;-0.708;2023-03-19T07:38:16;101073.55;;;8.14;64.44
55517;BME280;41724;51.176;-0.708;2023-03-19T07:40:43;101074.61;;;8.36;63.33
55517;BME280;41724;51.176;-0.708;2023-03-19T07:43:11;101076.03;;;8.38;63.64
55517;BME280;41724;51.176;-0.708;2023-03-19T07:45:38;101077.03;;;8.19;64.16
55517;BME280;41724;51.176;-0.708;2023-03-19T07:48:05;101079.20;;;7.62;66.70
55517;BME280;41724;51.176;-0.708;2023-03-19T07:50:33;101075.77;;;7.82;64.58
55517;BME280;41724;51.176;-0.708;2023-03-19T07:53:00;101079.48;;;8.74;63.58
55517;BME280;41724;51.176;-0.708;2023-03-19T07:55:27;101078.10;;;8.91;62.63
55517;BME280;41724;51.176;-0.708;2023-03-19T07:57:54;101083.35;;;8.90;62.12
55517;BME280;41724;51.176;-0.708;2023-03-19T08:00:22;101086.31;;;8.00;62.63
55517;BME280;41724;51.176;-0.708;2023-03-19T08:02:48;101090.75;;;7.58;65.34
55517;BME280;41724;51.176;-0.708;2023-03-19T08:05:16;101094.29;;;8.80;63.82
55517;BME280;41724;51.176;-0.708;2023-03-19T08:07:43;101095.76;;;8.68;61.58
55517;BME280;41724;51.176;-0.708;2023-03-19T08:10:11;101099.96;;;8.63;62.92
55517;BME280;41724;51.176;-0.708;2023-03-19T08:12:38;101099.48;;;8.05;64.31
55517;BME280;41724;51.176;-0.708;2023-03-19T08:15:07;101104.75;;;8.62;61.44
55517;BME280;41724;51.176;-0.708;2023-03-19T08:17:35;101106.50;;;8.73;62.24
55517;BME280;41724;51.176;-0.708;2023-03-19T08:20:02;101111.40;;;8.53;61.51
55517;BME280;41724;51.176;-0.708;2023-03-19T08:22:29;101115.93;;;8.70;60.59
55517;BME280;41724;51.176;-0.708;2023-03-19T08:24:56;101114.98;;;9.10;60.80
55517;BME280;41724;51.176;-0.708;2023-03-19T08:27:23;101122.40;;;9.12;59.23
55517;BME280;41724;51.176;-0.708;2023-03-19T08:29:50;101129.61;;;9.23;59.65
55517;BME280;41724;51.176;-0.708;2023-03-19T08:32:17;101135.67;;;8.99;59.94
55517;BME280;41724;51.176;-0.708;2023-03-19T08:34:44;101135.90;;;8.99;59.30
55517;BME280;41724;51.176;-0.708;2023-03-19T08:37:11;101137.04;;;9.48;58.99
55517;BME280;41724;51.176;-0.708;2023-03-19T08:39:39;101134.23;;;9.76;58.90
55517;BME280;41724;51.176;-0.708;2023-03-19T08:42:06;101144.75;;;10.14;57.68
55517;BME280;41724;51.176;-0.708;2023-03-19T08:44:33;101145.17;;;9.19;56.96
55517;BME280;41724;51.176;-0.708;2023-03-19T08:47:00;101148.62;;;9.88;59.05
55517;BME280;41724;51.176;-0.708;2023-03-19T08:49:27;101154.91;;;9.08;58.34
55517;BME280;41724;51.176;-0.708;2023-03-19T08:51:54;101158.32;;;9.71;59.91
55517;BME280;41724;51.176;-0.708;2023-03-19T08:54:22;101159.32;;;8.52;61.83
55517;BME280;41724;51.176;-0.708;2023-03-19T08:56:49;101164.87;;;8.34;60.96
55517;BME280;41724;51.176;-0.708;2023-03-19T08:59:16;101169.41;;;8.38;59.83
55517;BME280;41724;51.176;-0.708;2023-03-19T09:01:43;101162.38;;;8.61;61.62
55517;BME280;41724;51.176;-0.708;2023-03-19T09:04:10;101171.68;;;8.81;59.55
55517;BME280;41724;51.176;-0.708;2023-03-19T09:06:38;101170.01;;;9.40;57.64
55517;BME280;41724;51.176;-0.708;2023-03-19T09:09:04;101180.45;;;9.19;57.86
55517;BME280;41724;51.176;-0.708;2023-03-19T09:11:31;101188.23;;;8.93;56.75
55517;BME280;41724;51.176;-0.708;2023-03-19T09:14:04;101188.52;;;9.10;58.29
55517;BME280;41724;51.176;-0.708;2023-03-19T09:16:32;101195.55;;;9.03;57.84
55517;BME280;41724;51.176;-0.708;2023-03-19T09:18:58;101198.87;;;9.09;56.19
55517;BME280;41724;51.176;-0.708;2023-03-19T09:21:26;101197.78;;;8.41;59.85
55517;BME280;41724;51.176;-0.708;2023-03-19T09:23:58;101205.90;;;9.41;57.51
55517;BME280;41724;51.176;-0.708;2023-03-19T09:26:30;101206.84;;;9.21;56.43
55517;BME280;41724;51.176;-0.708;2023-03-19T09:28:58;101206.28;;;8.95;57.19
55517;BME280;41724;51.176;-0.708;2023-03-19T09:31:25;101209.54;;;10.30;55.10
55517;BME280;41724;51.176;-0.708;2023-03-19T09:33:53;101202.43;;;10.55;52.88
55517;BME280;41724;51.176;-0.708;2023-03-19T09:36:20;101208.61;;;9.52;54.64
55517;BME280;41724;51.176;-0.708;2023-03-19T09:38:47;101208.44;;;10.53;54.06
55517;BME280;41724;51.176;-0.708;2023-03-19T09:41:21;101204.97;;;11.55;50.35
55517;BME280;41724;51.176;-0.708;2023-03-19T09:43:58;101209.64;;;11.28;49.88
55517;BME280;41724;51.176;-0.708;2023-03-19T09:46:32;101217.24;;;11.48;49.26
55517;BME280;41724;51.176;-0.708;2023-03-19T09:49:10;101213.12;;;10.87;52.05
55517;BME280;41724;51.176;-0.708;2023-03-19T09:51:46;101215.73;;;11.15;49.15
55517;BME280;41724;51.176;-0.708;2023-03-19T09:54:27;101215.50;;;10.58;52.24
55517;BME280;41724;51.176;-0.708;2023-03-19T09:56:56;101209.15;;;11.46;49.18
55517;BME280;41724;51.176;-0.708;2023-03-19T09:59:25;101210.77;;;11.32;49.09
55517;BME280;41724;51.176;-0.708;2023-03-19T10:01:58;101214.09;;;10.83;47.78
55517;BME280;41724;51.176;-0.708;2023-03-19T10:04:40;101215.51;;;11.04;46.47
55517;BME280;41724;51.176;-0.708;2023-03-19T10:07:21;101215.44;;;12.50;46.65
55517;BME280;41724;51.176;-0.708;2023-03-19T10:10:02;101223.61;;;11.69;46.49
55517;BME280;41724;51.176;-0.708;2023-03-19T10:12:42;101229.37;;;11.52;45.70
55517;BME280;41724;51.176;-0.708;2023-03-19T10:15:21;101233.45;;;10.87;48.49
55517;BME280;41724;51.176;-0.708;2023-03-19T10:17:58;101230.75;;;11.27;46.00
55517;BME280;41724;51.176;-0.708;2023-03-19T10:20:33;101232.17;;;11.00;48.18
55517;BME280;41724;51.176;-0.708;2023-03-19T10:23:25;101242.05;;;10.58;47.78
55517;BME280;41724;51.176;-0.708;2023-03-19T10:25:57;101238.23;;;11.46;47.40
55517;BME280;41724;51.176;-0.708;2023-03-19T10:28:26;101243.04;;;11.35;48.33
55517;BME280;41724;51.176;-0.708;2023-03-19T10:31:04;101247.13;;;11.47;49.99
55517;BME280;41724;51.176;-0.708;2023-03-19T10:33:41;101246.92;;;11.58;46.60
55517;BME280;41724;51.176;-0.708;2023-03-19T10:36:10;101247.45;;;11.11;46.19
55517;BME280;41724;51.176;-0.708;2023-03-19T10:38:39;101253.30;;;10.67;47.14
55517;BME280;41724;51.176;-0.708;2023-03-19T10:41:20;101257.12;;;12.06;46.19
55517;BME280;41724;51.176;-0.708;2023-03-19T10:43:55;101254.99;;;11.85;46.09
55517;BME280;41724;51.176;-0.708;2023-03-19T10:46:25;101255.74;;;11.96;47.09
55517;BME280;41724;51.176;-0.708;2023-03-19T10:48:53;101258.74;;;10.77;48.18
55517;BME280;41724;51.176;-0.708;2023-03-19T10:51:23;101255.19;;;10.86;48.61
55517;BME280;41724;51.176;-0.708;2023-03-19T10:53:59;101261.29;;;10.63;49.44
55517;BME280;41724;51.176;-0.708;2023-03-19T10:56:28;101263.66;;;10.95;48.56
55517;BME280;41724;51.176;-0.708;2023-03-19T10:59:02;101262.49;;;11.00;48.76
55517;BME280;41724;51.176;-0.708;2023-03-19T11:01:32;101261.99;;;10.97;48.66
55517;BME280;41724;51.176;-0.708;2023-03-19T11:04:01;101263.27;;;12.18;48.00
55517;BME280;41724;51.176;-0.708;2023-03-19T11:06:38;101260.06;;;12.66;46.62
55517;BME280;41724;51.176;-0.708;2023-03-19T11:09:13;101256.66;;;12.75;45.90
55517;BME280;41724;51.176;-0.708;2023-03-19T11:11:45;101251.82;;;13.11;45.03
55517;BME280;41724;51.176;-0.708;2023-03-19T11:14:16;101253.94;;;12.31;45.37
55517;BME280;41724;51.176;-0.708;2023-03-19T11:16:49;101257.41;;;12.64;45.78
55517;BME280;41724;51.176;-0.708;2023-03-19T11:19:19;101258.83;;;12.18;45.38
55517;BME280;41724;51.176;-0.708;2023-03-19T11:22:02;101257.81;;;11.62;42.99
55517;BME280;41724;51.176;-0.708;2023-03-19T11:24:37;101258.24;;;12.54;41.04
55517;BME280;41724;51.176;-0.708;2023-03-19T11:27:05;101264.39;;;11.46;41.80
55517;BME280;41724;51.176;-0.708;2023-03-19T11:29:34;101258.07;;;13.28;41.09
55517;BME280;41724;51.176;-0.708;2023-03-19T11:32:18;101257.17;;;12.67;41.66
55517;BME280;41724;51.176;-0.708;2023-03-19T11:34:54;101261.66;;;13.71;40.95
55517;BME280;41724;51.176;-0.708;2023-03-19T11:37:30;101261.56;;;13.85;42.37
55517;BME280;41724;51.176;-0.708;2023-03-19T11:40:08;101260.86;;;13.09;42.82
55517;BME280;41724;51.176;-0.708;2023-03-19T11:42:46;101263.63;;;14.00;42.55
55517;BME280;41724;51.176;-0.708;2023-03-19T11:45:27;101263.60;;;13.10;41.20
55517;BME280;41724;51.176;-0.708;2023-03-19T11:48:09;101267.68;;;13.45;40.72
55517;BME280;41724;51.176;-0.708;2023-03-19T11:50:49;101278.62;;;12.67;44.27
55517;BME280;41724;51.176;-0.708;2023-03-19T11:53:27;101276.95;;;12.46;43.71
55517;BME280;41724;51.176;-0.708;2023-03-19T11:56:02;101275.09;;;12.77;43.57
55517;BME280;41724;51.176;-0.708;2023-03-19T11:58:47;101279.19;;;13.18;42.89
55517;BME280;41724;51.176;-0.708;2023-03-19T12:01:32;101276.19;;;13.40;42.85
55517;BME280;41724;51.176;-0.708;2023-03-19T12:04:35;101279.20;;;13.11;44.27
55517;BME280;41724;51.176;-0.708;2023-03-19T12:07:18;101286.77;;;13.55;42.55
55517;BME280;41724;51.176;-0.708;2023-03-19T12:10:02;101290.93;;;12.81;43.71
55517;BME280;41724;51.176;-0.708;2023-03-19T12:12:40;101292.12;;;12.61;44.40
55517;BME280;41724;51.176;-0.708;2023-03-19T12:15:15;101287.23;;;13.17;43.34
55517;BME280;41724;51.176;-0.708;2023-03-19T12:17:54;101290.95;;;11.51;42.55
55517;BME280;41724;51.176;-0.708;2023-03-19T12:20:33;101280.84;;;13.21;43.37
55517;BME280;41724;51.176;-0.708;2023-03-19T12:23:10;101280.80;;;13.21;40.20
55517;BME280;41724;51.176;-0.708;2023-03-19T12:25:49;101280.75;;;12.23;42.80
55517;BME280;41724;51.176;-0.708;2023-03-19T12:28:23;101280.31;;;13.00;42.10
55517;BME280;41724;51.176;-0.708;2023-03-19T12:31:06;101279.18;;;13.57;41.28
55517;BME280;41724;51.176;-0.708;2023-03-19T12:33:45;101279.91;;;13.13;41.93
55517;BME280;41724;51.176;-0.708;2023-03-19T12:36:17;101284.37;;;12.28;43.19
55517;BME280;41724;51.176;-0.708;2023-03-19T12:38:47;101286.00;;;12.28;44.96
55517;BME280;41724;51.176;-0.708;2023-03-19T12:41:19;101292.02;;;11.82;43.33
55517;BME280;41724;51.176;-0.708;2023-03-19T12:43:53;101289.56;;;12.01;43.62
55517;BME280;41724;51.176;-0.708;2023-03-19T12:46:27;101276.72;;;12.80;44.56
55517;BME280;41724;51.176;-0.708;2023-03-19T12:49:00;101279.71;;;13.22;42.28
55517;BME280;41724;51.176;-0.708;2023-03-19T12:51:34;101292.39;;;11.38;44.47
55517;BME280;41724;51.176;-0.708;2023-03-19T12:54:04;101283.74;;;11.81;44.26
55517;BME280;41724;51.176;-0.708;2023-03-19T12:56:38;101282.43;;;12.21;43.24
55517;BME280;41724;51.176;-0.708;2023-03-19T12:59:18;101275.49;;;12.98;42.17